Aviation Digital Data Service (ADDS)

Output produced by METARs form (1154 UTC 22 March 2019)
found at http://www.aviationweather.gov/metar/data/
 
Forecast for: RPLL (NINOY AQUINO INT, PH)
Text: TAF RPLL 221100Z 2212/2318 11008KT 9999 FEW025 TX34/2306Z TN26/2222Z
Forecast period: 1200 UTC 22 March 2019 to 1800 UTC 23 March 2019
Forecast type: FROM: standard forecast or significant change
Winds: from the ESE (110 degrees) at 9 MPH (8 knots; 4.1 m/s)
Visibility: 6 or more miles 10+ km)
Ceiling: at least 12,000 feet AGL
Clouds: few clouds at 2500 feet AGL
Weather: no significant weather forecast for this period
Text: TEMPO 2212/2218 13012KT FEW030
Forecast period: 1200 to 1800 UTC 22 March 2019
Forecast type: TEMPORARY: The following changes expected for less than half the time period
Winds: from the SE (130 degrees) at 14 MPH (12 knots; 6.2 m/s)
Visibility: missing
Ceiling: at least 12,000 feet AGL
Clouds: few clouds at 3000 feet AGL
Weather: no significant weather forecast for this period
Text: TEMPO 2218/2224 09007KT FEW030 SCT100
Forecast period: 1800 UTC 22 March 2019 to 0000 UTC 23 March 2019
Forecast type: TEMPORARY: The following changes expected for less than half the time period
Winds: from the E (90 degrees) at 8 MPH (7 knots; 3.6 m/s)
Visibility: missing
Ceiling: at least 12,000 feet AGL
Clouds: few clouds at 3000 feet AGL
scattered clouds at 10000 feet AGL
Weather: no significant weather forecast for this period